Time;durP1;ratioP1;P1;durP2;ratioP2;P2;SDS_P1;SDS_P2;PMS_P1;PMS_P2;Temp;Humidity;BMP_temperature;BMP_pressure;BME280_temperature;BME280_humidity;BME280_pressure;Samples;Min_cycle;Max_cycle;Signal;HPM_P1;HPM_P2
2021/12/29 00:02:49;;;;;;;8.70;2.83;;;10.50;99.90;;;;;;10526232;28;20242;-82
2021/12/29 00:07:52;;;;;;;3.50;2.10;;;10.50;99.90;;;;;;10526626;28;20364;-82
2021/12/29 00:12:55;;;;;;;4.10;2.10;;;10.50;99.90;;;;;;10537362;28;20219;-83
2021/12/29 00:17:59;;;;;;;4.13;2.30;;;10.40;99.90;;;;;;10544909;28;20218;-83
2021/12/29 00:23:04;;;;;;;3.90;2.60;;;10.40;99.90;;;;;;10559008;28;20239;-82
2021/12/29 00:28:07;;;;;;;2.47;2.10;;;10.50;99.90;;;;;;10533418;28;20216;-82
2021/12/29 00:33:28;;;;;;;3.00;2.00;;;10.50;99.90;;;;;;10539650;28;20219;-83
2021/12/29 00:38:59;;;;;;;2.40;2.10;;;10.50;99.90;;;;;;10567974;28;20670;-83
2021/12/29 00:44:16;;;;;;;4.07;2.17;;;10.50;99.90;;;;;;10572819;22;20281;-84
2021/12/29 00:49:38;;;;;;;1.60;1.50;;;10.50;99.90;;;;;;10543526;28;20624;-81
2021/12/29 00:54:43;;;;;;;3.13;1.87;;;10.40;99.90;;;;;;10539998;28;20244;-83
2021/12/29 00:59:45;;;;;;;3.33;1.83;;;10.40;99.90;;;;;;10546965;28;20220;-82
2021/12/29 01:04:49;;;;;;;2.67;1.77;;;10.40;99.90;;;;;;10545877;28;20212;-81
2021/12/29 01:09:51;;;;;;;5.97;2.10;;;10.40;99.90;;;;;;10524788;28;20219;-80
2021/12/29 01:14:55;;;;;;;3.10;1.60;;;10.30;99.90;;;;;;10542718;28;20609;-78
2021/12/29 01:19:59;;;;;;;1.83;1.50;;;10.30;99.90;;;;;;10535293;28;20651;-81
2021/12/29 01:25:01;;;;;;;1.53;1.43;;;10.30;99.90;;;;;;10538109;28;20263;-82
2021/12/29 01:30:09;;;;;;;3.87;1.80;;;10.20;99.90;;;;;;10523951;28;20226;-82
2021/12/29 01:35:13;;;;;;;2.37;1.57;;;10.30;99.90;;;;;;10548493;28;20599;-79
2021/12/29 01:40:18;;;;;;;1.60;1.47;;;10.30;99.90;;;;;;10528290;28;20196;-80
2021/12/29 01:45:21;;;;;;;1.40;1.30;;;10.40;99.90;;;;;;10541418;28;20235;-78
2021/12/29 01:50:24;;;;;;;2.77;1.50;;;10.40;99.90;;;;;;10513032;28;20246;-78
2021/12/29 01:55:27;;;;;;;1.60;1.30;;;10.40;99.90;;;;;;10545797;28;20216;-78
2021/12/29 02:00:32;;;;;;;1.87;1.40;;;10.50;99.90;;;;;;10536309;28;20566;-79
2021/12/29 02:05:36;;;;;;;3.63;1.50;;;10.50;99.90;;;;;;10511554;28;20223;-79
2021/12/29 02:10:44;;;;;;;2.20;1.70;;;10.50;99.90;;;;;;10536984;28;20231;-78
2021/12/29 02:15:46;;;;;;;1.40;1.30;;;10.60;99.90;;;;;;10541905;28;20231;-80
2021/12/29 02:20:53;;;;;;;2.70;1.37;;;10.60;99.90;;;;;;10508729;28;20200;-79
2021/12/29 02:25:56;;;;;;;1.40;1.30;;;10.60;99.90;;;;;;10481156;28;20224;-80
2021/12/29 02:30:59;;;;;;;1.43;1.27;;;10.60;99.90;;;;;;10510014;28;20224;-81
2021/12/29 02:36:05;;;;;;;1.50;1.40;;;10.60;99.90;;;;;;10513088;28;20290;-77
2021/12/29 02:41:08;;;;;;;1.53;1.43;;;10.70;99.90;;;;;;10518414;28;20207;-80
2021/12/29 02:46:13;;;;;;;1.30;1.20;;;10.60;99.90;;;;;;10532516;28;20231;-80
2021/12/29 02:51:17;;;;;;;2.20;1.30;;;10.70;99.90;;;;;;10527609;28;20281;-80
2021/12/29 02:56:19;;;;;;;1.47;1.37;;;10.70;99.90;;;;;;10534903;28;20220;-80
2021/12/29 03:01:22;;;;;;;1.43;1.33;;;10.70;99.90;;;;;;10531371;28;20207;-80
2021/12/29 03:06:26;;;;;;;2.20;1.50;;;10.70;99.90;;;;;;10530919;28;20707;-80
2021/12/29 03:11:28;;;;;;;1.37;1.30;;;10.70;99.90;;;;;;10523194;28;20200;-80
2021/12/29 03:16:31;;;;;;;1.17;1.07;;;10.70;99.90;;;;;;10530170;28;20247;-80
2021/12/29 03:21:36;;;;;;;1.33;1.10;;;10.70;99.90;;;;;;10536529;28;20635;-81
2021/12/29 03:26:38;;;;;;;2.40;1.20;;;10.80;99.90;;;;;;10534702;28;20586;-81
2021/12/29 03:31:42;;;;;;;1.30;1.20;;;10.70;99.90;;;;;;10509504;28;20202;-82
2021/12/29 03:36:45;;;;;;;1.33;1.23;;;10.80;99.90;;;;;;10490912;28;20282;-81
2021/12/29 03:41:47;;;;;;;1.77;1.20;;;10.80;99.90;;;;;;10508416;28;20561;-82
2021/12/29 03:46:49;;;;;;;2.03;1.27;;;10.80;99.90;;;;;;10548033;28;20224;-82
2021/12/29 03:51:53;;;;;;;1.40;1.30;;;10.80;99.90;;;;;;10537328;28;20580;-82
2021/12/29 03:56:55;;;;;;;2.10;1.20;;;10.80;99.90;;;;;;10517318;28;20213;-82
2021/12/29 04:01:57;;;;;;;1.30;1.20;;;10.90;99.90;;;;;;10547184;28;20286;-81
2021/12/29 04:07:00;;;;;;;1.23;1.23;;;10.90;99.90;;;;;;10567542;28;20223;-80
2021/12/29 04:12:03;;;;;;;1.50;1.40;;;10.90;99.90;;;;;;10537151;28;20196;-82
2021/12/29 04:17:10;;;;;;;2.73;1.63;;;10.80;99.90;;;;;;10519360;28;20665;-81
2021/12/29 04:22:13;;;;;;;1.67;1.57;;;10.80;99.90;;;;;;10540012;28;20207;-82
2021/12/29 04:27:15;;;;;;;1.40;1.40;;;10.80;99.90;;;;;;10544890;28;20231;-82
2021/12/29 04:32:17;;;;;;;2.30;1.83;;;10.80;99.90;;;;;;10533486;28;20201;-79
2021/12/29 04:37:21;;;;;;;1.60;1.30;;;10.80;99.90;;;;;;10543064;28;20222;-77
2021/12/29 04:42:23;;;;;;;1.50;1.50;;;10.70;99.90;;;;;;10542896;28;20196;-78
2021/12/29 04:47:29;;;;;;;1.73;1.63;;;10.60;99.90;;;;;;10512857;28;20250;-78
2021/12/29 04:52:32;;;;;;;1.93;1.70;;;10.50;99.90;;;;;;10505282;28;20562;-79
2021/12/29 04:57:34;;;;;;;2.00;1.90;;;10.40;99.90;;;;;;10535433;28;20795;-79
2021/12/29 05:02:37;;;;;;;2.10;2.00;;;10.40;99.90;;;;;;10535601;28;20289;-77
2021/12/29 05:12:59;;;;;;;1.83;1.73;;;10.20;99.90;;;;;;10507576;28;20201;-79
2021/12/29 05:18:02;;;;;;;2.30;1.90;;;10.20;99.90;;;;;;10533633;28;20203;-78
2021/12/29 05:23:05;;;;;;;3.37;2.20;;;10.20;99.90;;;;;;10516691;28;20250;-79
2021/12/29 05:28:08;;;;;;;2.00;1.90;;;10.20;99.90;;;;;;10540289;28;20207;-79
2021/12/29 05:33:11;;;;;;;2.33;2.23;;;10.20;99.90;;;;;;10525261;28;20200;-77
2021/12/29 05:38:14;;;;;;;2.30;2.00;;;10.20;99.90;;;;;;10500264;28;20711;-77
2021/12/29 05:43:16;;;;;;;2.13;2.00;;;10.20;99.90;;;;;;10498994;28;20281;-79
2021/12/29 05:48:19;;;;;;;2.63;2.03;;;10.20;99.90;;;;;;10516889;28;20215;-79
2021/12/29 05:53:22;;;;;;;2.77;2.57;;;10.20;99.90;;;;;;10509832;28;20219;-79
2021/12/29 05:58:25;;;;;;;4.97;2.47;;;10.20;99.90;;;;;;10502495;28;20226;-79
2021/12/29 06:03:27;;;;;;;3.30;2.07;;;10.20;99.90;;;;;;10504143;28;20212;-78
2021/12/29 06:08:30;;;;;;;2.27;1.40;;;10.20;99.90;;;;;;10511425;28;20627;-78
2021/12/29 06:13:32;;;;;;;4.43;2.73;;;10.20;99.90;;;;;;10534521;28;20754;-77
2021/12/29 06:18:35;;;;;;;4.03;1.50;;;10.20;99.90;;;;;;10531917;28;20200;-76
2021/12/29 06:23:38;;;;;;;2.30;1.70;;;10.20;99.90;;;;;;10533102;28;20216;-78
2021/12/29 06:28:40;;;;;;;1.73;1.63;;;10.20;99.90;;;;;;10534137;28;20763;-78
2021/12/29 06:33:42;;;;;;;1.50;1.40;;;10.10;99.90;;;;;;10536299;28;20702;-77
2021/12/29 06:38:46;;;;;;;2.70;1.40;;;10.10;99.90;;;;;;10531370;28;20219;-78
2021/12/29 06:43:48;;;;;;;2.50;1.70;;;10.10;99.90;;;;;;10527424;28;20227;-80
2021/12/29 06:48:50;;;;;;;2.60;1.00;;;10.10;99.90;;;;;;10538377;28;20244;-81
2021/12/29 06:53:54;;;;;;;3.20;2.53;;;10.20;99.90;;;;;;10540660;28;20593;-81
2021/12/29 06:58:56;;;;;;;2.07;1.80;;;10.20;99.90;;;;;;10543454;28;20199;-80
2021/12/29 07:03:58;;;;;;;2.10;1.43;;;10.20;99.90;;;;;;10539965;28;20600;-81
2021/12/29 07:09:01;;;;;;;2.93;1.87;;;10.20;99.90;;;;;;10544967;28;20220;-80
2021/12/29 07:14:04;;;;;;;1.73;1.63;;;10.20;99.90;;;;;;10537646;28;20226;-81
2021/12/29 07:19:07;;;;;;;2.37;2.03;;;10.30;99.90;;;;;;10539667;28;20196;-80
2021/12/29 07:24:11;;;;;;;2.00;1.80;;;10.30;99.90;;;;;;10539986;28;20310;-80
2021/12/29 07:29:14;;;;;;;3.10;1.43;;;10.30;99.90;;;;;;10536352;28;20223;-81
2021/12/29 07:34:16;;;;;;;3.83;1.60;;;10.30;99.90;;;;;;10526281;28;20303;-81
2021/12/29 07:39:20;;;;;;;2.03;1.40;;;10.30;99.90;;;;;;10522160;28;20207;-81
2021/12/29 07:44:25;;;;;;;2.30;2.00;;;10.30;99.90;;;;;;10532570;28;20220;-81
2021/12/29 07:49:28;;;;;;;3.60;1.90;;;10.30;99.90;;;;;;10506321;28;20222;-80
2021/12/29 07:54:32;;;;;;;2.50;1.90;;;10.30;99.90;;;;;;10507297;28;20242;-81
2021/12/29 07:59:34;;;;;;;2.93;1.97;;;10.30;99.90;;;;;;10504494;28;20185;-80
2021/12/29 08:04:37;;;;;;;2.60;2.40;;;10.30;99.90;;;;;;10503875;28;20219;-81
2021/12/29 08:09:40;;;;;;;3.27;2.97;;;10.30;99.90;;;;;;10498101;28;20213;-79
2021/12/29 08:14:43;;;;;;;3.90;3.70;;;10.30;99.90;;;;;;10504791;28;20220;-79
2021/12/29 08:19:46;;;;;;;4.30;4.10;;;10.20;99.90;;;;;;10503445;28;20291;-81
2021/12/29 08:24:50;;;;;;;4.50;4.20;;;10.20;99.90;;;;;;10506416;28;20220;-79
2021/12/29 08:29:52;;;;;;;4.60;2.57;;;10.10;99.90;;;;;;10518012;28;20224;-81
2021/12/29 08:34:54;;;;;;;4.07;3.80;;;10.00;99.90;;;;;;10544529;28;20715;-79
2021/12/29 08:39:57;;;;;;;3.23;3.10;;;10.10;99.90;;;;;;10535899;28;20188;-80
2021/12/29 08:45:00;;;;;;;3.40;3.30;;;10.10;99.90;;;;;;10537254;28;20227;-80
2021/12/29 08:50:03;;;;;;;3.70;3.43;;;10.10;99.90;;;;;;10544344;28;20291;-81
2021/12/29 08:55:09;;;;;;;3.83;3.43;;;10.10;99.90;;;;;;10520484;28;20328;-81
2021/12/29 09:00:13;;;;;;;3.97;3.77;;;10.10;99.90;;;;;;10523301;28;20204;-81
2021/12/29 09:05:17;;;;;;;4.53;3.80;;;10.10;99.90;;;;;;10543969;28;20219;-81
2021/12/29 09:10:21;;;;;;;9.13;8.20;;;10.10;99.90;;;;;;10544072;28;20261;-78
2021/12/29 09:15:26;;;;;;;3.00;2.80;;;10.10;99.90;;;;;;10530243;28;20216;-81
2021/12/29 09:20:31;;;;;;;14.90;13.63;;;10.20;99.90;;;;;;10540897;28;20247;-81
2021/12/29 09:25:36;;;;;;;3.27;3.00;;;10.30;99.90;;;;;;10545426;28;20243;-81
2021/12/29 09:30:40;;;;;;;2.20;2.10;;;10.30;99.90;;;;;;10547724;28;20212;-81
2021/12/29 09:35:43;;;;;;;3.40;2.20;;;10.30;99.90;;;;;;10546968;28;20223;-81
2021/12/29 09:40:48;;;;;;;2.53;2.20;;;10.40;99.90;;;;;;10546248;28;20260;-81
2021/12/29 09:45:53;;;;;;;2.73;2.60;;;10.40;99.90;;;;;;10551851;28;20232;-81
2021/12/29 09:50:55;;;;;;;2.70;2.57;;;10.50;99.90;;;;;;10551004;28;20228;-80
2021/12/29 09:55:59;;;;;;;3.37;3.10;;;10.60;99.90;;;;;;10540490;28;20362;-80
2021/12/29 10:01:04;;;;;;;2.90;2.70;;;10.70;99.90;;;;;;10539035;28;20759;-80
2021/12/29 10:06:10;;;;;;;2.80;2.70;;;10.80;99.90;;;;;;10546477;28;20246;-80
2021/12/29 10:11:15;;;;;;;9.50;2.83;;;10.90;99.90;;;;;;10536264;28;20220;-81
2021/12/29 10:16:24;;;;;;;3.87;3.53;;;10.90;99.90;;;;;;10533008;28;20227;-82
2021/12/29 10:21:26;;;;;;;2.17;2.07;;;10.90;99.90;;;;;;10534282;28;20659;-81
2021/12/29 10:26:32;;;;;;;2.40;2.30;;;10.90;99.90;;;;;;10542434;28;20311;-81
2021/12/29 10:31:38;;;;;;;2.37;2.17;;;11.00;99.90;;;;;;10524672;28;20604;-80
2021/12/29 10:36:43;;;;;;;2.77;2.10;;;11.10;99.90;;;;;;10536818;28;20211;-81
2021/12/29 10:41:50;;;;;;;2.70;2.00;;;11.10;99.90;;;;;;10539630;28;20205;-81
2021/12/29 10:46:56;;;;;;;2.97;2.07;;;11.10;99.90;;;;;;10522983;28;20258;-80
2021/12/29 10:52:01;;;;;;;2.37;2.27;;;11.20;99.90;;;;;;10543810;28;20245;-81
2021/12/29 10:57:06;;;;;;;3.03;1.90;;;11.10;99.90;;;;;;10528258;28;20219;-81
2021/12/29 11:02:10;;;;;;;5.00;2.17;;;11.20;99.90;;;;;;10535880;28;20246;-81
2021/12/29 11:07:14;;;;;;;1.43;1.33;;;11.30;99.90;;;;;;10537534;28;20234;-81
2021/12/29 11:12:18;;;;;;;2.20;2.00;;;11.30;99.90;;;;;;10539447;28;20303;-82
2021/12/29 11:17:26;;;;;;;4.73;2.20;;;11.40;99.90;;;;;;10543298;28;20311;-81
2021/12/29 11:22:30;;;;;;;3.80;2.27;;;11.50;99.90;;;;;;10559302;28;20829;-81
2021/12/29 11:27:36;;;;;;;2.30;2.10;;;11.50;99.90;;;;;;10533021;28;20230;-77
2021/12/29 11:32:41;;;;;;;2.13;1.93;;;11.50;99.90;;;;;;10530997;28;20647;-81
2021/12/29 11:37:47;;;;;;;2.33;2.10;;;11.60;99.90;;;;;;10521198;28;20280;-81
2021/12/29 11:42:52;;;;;;;3.37;2.03;;;11.60;99.90;;;;;;10545520;28;20211;-78
2021/12/29 11:47:54;;;;;;;1.90;1.80;;;11.60;99.90;;;;;;10518078;28;20229;-78
2021/12/29 11:53:09;;;;;;;3.17;2.00;;;11.60;99.90;;;;;;10534961;28;20250;-78
2021/12/29 11:58:16;;;;;;;2.57;1.70;;;11.60;99.90;;;;;;10530489;28;20253;-80
2021/12/29 12:03:18;;;;;;;2.47;2.07;;;11.60;99.90;;;;;;10531382;28;20565;-79
2021/12/29 12:08:24;;;;;;;4.47;1.67;;;11.60;99.90;;;;;;10549692;28;20277;-79
2021/12/29 12:13:31;;;;;;;1.63;1.53;;;11.60;99.90;;;;;;10539306;28;20222;-79
2021/12/29 12:18:44;;;;;;;3.70;2.17;;;11.60;99.90;;;;;;10542174;28;20196;-81
2021/12/29 12:23:47;;;;;;;2.50;2.20;;;11.80;99.90;;;;;;10540847;28;20226;-82
2021/12/29 12:28:54;;;;;;;2.33;2.00;;;11.90;99.90;;;;;;10520247;28;20235;-80
2021/12/29 12:34:08;;;;;;;1.93;1.73;;;11.90;99.90;;;;;;10541671;28;20665;-80
2021/12/29 12:39:13;;;;;;;3.43;2.40;;;11.90;99.90;;;;;;10544524;28;20234;-81
2021/12/29 12:44:19;;;;;;;6.30;2.13;;;12.00;99.90;;;;;;10542152;22;20211;-77
2021/12/29 12:49:23;;;;;;;3.70;2.47;;;12.00;99.90;;;;;;10535004;28;20301;-77
2021/12/29 12:54:27;;;;;;;5.03;2.60;;;12.00;99.90;;;;;;10537162;28;20298;-77
2021/12/29 12:59:37;;;;;;;7.40;2.90;;;12.00;99.90;;;;;;10538357;28;20200;-77
2021/12/29 13:04:43;;;;;;;9.37;3.00;;;12.00;99.90;;;;;;10522821;28;20691;-77
2021/12/29 13:09:47;;;;;;;6.33;3.40;;;12.00;99.90;;;;;;10498938;28;20270;-77
2021/12/29 13:14:50;;;;;;;4.57;2.87;;;12.00;99.90;;;;;;10500758;28;20302;-77
2021/12/29 13:19:53;;;;;;;8.33;3.70;;;12.00;99.90;;;;;;10502019;28;20205;-76
2021/12/29 13:25:06;;;;;;;7.90;2.93;;;12.00;99.90;;;;;;10498860;28;20231;-77
2021/12/29 13:30:13;;;;;;;5.57;2.60;;;12.00;99.90;;;;;;10509980;28;20212;-77
2021/12/29 13:35:15;;;;;;;5.20;2.93;;;12.00;99.90;;;;;;10516483;28;20220;-76
2021/12/29 13:40:19;;;;;;;4.43;2.70;;;12.00;99.90;;;;;;10516025;28;20211;-77
2021/12/29 13:45:24;;;;;;;4.40;2.40;;;11.90;99.90;;;;;;10515314;28;20243;-77
2021/12/29 13:50:26;;;;;;;4.30;2.57;;;11.90;99.90;;;;;;10513271;28;20243;-77
2021/12/29 13:55:31;;;;;;;5.03;2.50;;;11.90;99.90;;;;;;10500192;28;20270;-77
2021/12/29 14:00:37;;;;;;;4.13;2.50;;;12.00;99.90;;;;;;10528905;28;20245;-77
2021/12/29 14:05:41;;;;;;;5.73;2.77;;;11.90;99.90;;;;;;10532861;28;20230;-78
2021/12/29 14:10:45;;;;;;;4.37;2.27;;;11.90;99.90;;;;;;10522153;28;20223;-78
2021/12/29 14:15:50;;;;;;;2.63;2.37;;;11.80;99.90;;;;;;10526940;28;20219;-77
2021/12/29 14:20:55;;;;;;;4.30;2.60;;;11.80;99.90;;;;;;10534105;28;20203;-77
2021/12/29 14:26:08;;;;;;;3.00;2.30;;;11.80;99.90;;;;;;10524066;28;20278;-78
2021/12/29 14:31:13;;;;;;;3.40;2.43;;;11.80;99.90;;;;;;10494239;28;20553;-77
2021/12/29 14:36:18;;;;;;;1.97;1.87;;;11.70;99.90;;;;;;10514486;28;20603;-78
2021/12/29 14:41:22;;;;;;;2.33;2.10;;;11.70;99.90;;;;;;10532987;28;20656;-78
2021/12/29 14:46:26;;;;;;;3.80;2.00;;;11.70;99.90;;;;;;10529708;28;20703;-78
2021/12/29 14:51:28;;;;;;;2.03;1.83;;;11.60;99.90;;;;;;10534938;28;20212;-77
2021/12/29 14:56:30;;;;;;;1.97;1.87;;;11.60;99.90;;;;;;10541564;28;20220;-78
2021/12/29 15:01:34;;;;;;;7.30;2.73;;;11.60;99.90;;;;;;10544653;28;20538;-77
2021/12/29 15:06:39;;;;;;;1.80;1.70;;;11.50;99.90;;;;;;10548173;28;20220;-78
2021/12/29 15:11:44;;;;;;;2.13;2.03;;;11.50;99.90;;;;;;10542395;28;20216;-78
2021/12/29 15:16:55;;;;;;;2.90;1.90;;;11.40;99.90;;;;;;10541008;28;20234;-77
2021/12/29 15:21:59;;;;;;;3.03;2.20;;;11.40;99.90;;;;;;10533214;28;20279;-78
2021/12/29 15:27:01;;;;;;;2.20;2.00;;;11.30;99.90;;;;;;10523748;28;20648;-77
2021/12/29 15:32:05;;;;;;;1.87;1.77;;;11.30;99.90;;;;;;10508943;28;20639;-76
2021/12/29 15:37:07;;;;;;;1.67;1.57;;;11.30;99.90;;;;;;10532767;28;20273;-77
2021/12/29 15:42:09;;;;;;;2.00;1.90;;;11.30;99.90;;;;;;10535131;28;20238;-76
2021/12/29 15:47:13;;;;;;;1.90;1.80;;;11.30;99.90;;;;;;10528527;28;20231;-77
2021/12/29 15:52:15;;;;;;;2.17;1.90;;;11.30;99.90;;;;;;10515378;28;20277;-78
2021/12/29 15:57:17;;;;;;;2.10;2.00;;;11.30;99.90;;;;;;10533227;28;20238;-77
2021/12/29 16:02:22;;;;;;;2.97;1.80;;;11.30;99.90;;;;;;10535835;28;20223;-77
2021/12/29 16:07:24;;;;;;;2.17;2.07;;;11.30;99.90;;;;;;10534196;28;20259;-76
2021/12/29 16:12:26;;;;;;;2.20;2.10;;;11.30;99.90;;;;;;10530547;28;20223;-76
2021/12/29 16:17:29;;;;;;;2.33;2.10;;;11.30;99.90;;;;;;10533037;28;20223;-76
2021/12/29 16:22:31;;;;;;;1.87;1.67;;;11.20;99.90;;;;;;10534268;28;20199;-77
2021/12/29 16:27:34;;;;;;;1.73;1.63;;;11.10;99.90;;;;;;10533323;28;20702;-77
2021/12/29 16:32:38;;;;;;;2.80;2.53;;;10.90;99.90;;;;;;10535299;28;20690;-76
2021/12/29 16:37:40;;;;;;;2.50;2.40;;;10.80;99.90;;;;;;10529647;28;20211;-77
2021/12/29 16:42:43;;;;;;;3.20;2.90;;;10.70;99.90;;;;;;10514060;28;20200;-77
2021/12/29 16:47:47;;;;;;;2.93;2.73;;;10.60;99.90;;;;;;10528280;28;20230;-77
2021/12/29 16:52:49;;;;;;;1.90;1.80;;;10.50;99.90;;;;;;10525134;28;20691;-77
2021/12/29 16:57:51;;;;;;;4.17;3.90;;;10.40;99.90;;;;;;10527000;28;20217;-77
2021/12/29 17:02:55;;;;;;;4.33;4.20;;;10.30;99.90;;;;;;10520297;28;20200;-77
2021/12/29 17:07:57;;;;;;;6.50;6.20;;;10.30;99.90;;;;;;10529923;28;20223;-77
2021/12/29 17:13:00;;;;;;;6.77;6.43;;;10.20;99.90;;;;;;10537376;28;20249;-77
2021/12/29 17:18:04;;;;;;;6.00;5.70;;;10.10;99.90;;;;;;10508045;28;20239;-76
2021/12/29 17:23:06;;;;;;;7.87;7.57;;;10.20;99.90;;;;;;10511752;28;20199;-77
2021/12/29 17:28:08;;;;;;;8.23;7.83;;;10.10;99.90;;;;;;10539375;28;20216;-76
2021/12/29 17:33:11;;;;;;;8.63;8.23;;;10.20;99.90;;;;;;10516348;28;20586;-77
2021/12/29 17:38:14;;;;;;;6.23;5.80;;;10.20;99.90;;;;;;10536054;28;20231;-77
2021/12/29 17:43:16;;;;;;;6.90;6.60;;;10.20;99.90;;;;;;10528590;28;20196;-77
2021/12/29 17:48:19;;;;;;;7.30;7.00;;;10.30;99.90;;;;;;10526886;28;20285;-77
2021/12/29 17:53:22;;;;;;;6.07;5.67;;;10.30;99.90;;;;;;10514966;28;20310;-77
2021/12/29 17:58:24;;;;;;;7.87;7.47;;;10.30;99.90;;;;;;10527648;28;20204;-77
2021/12/29 18:03:27;;;;;;;7.00;6.70;;;10.30;99.90;;;;;;10510023;28;20203;-77
2021/12/29 18:08:29;;;;;;;8.50;8.00;;;10.30;99.90;;;;;;10511585;28;20200;-76
2021/12/29 18:13:37;;;;;;;6.13;5.83;;;10.30;99.90;;;;;;10523251;28;20246;-76
2021/12/29 18:18:45;;;;;;;6.40;6.10;;;10.20;99.90;;;;;;10519979;28;20200;-77
2021/12/29 18:23:50;;;;;;;7.00;6.70;;;10.20;99.90;;;;;;10528864;28;20691;-79
2021/12/29 18:28:53;;;;;;;5.10;4.80;;;10.30;99.90;;;;;;10536016;28;20224;-76
2021/12/29 18:33:56;;;;;;;7.57;7.20;;;10.40;99.90;;;;;;10514553;28;20303;-77
2021/12/29 18:39:02;;;;;;;6.10;5.90;;;10.50;99.90;;;;;;10530300;28;20200;-77
2021/12/29 18:44:04;;;;;;;6.20;6.00;;;10.60;99.90;;;;;;10544418;22;20200;-79
2021/12/29 18:49:08;;;;;;;6.10;5.90;;;10.60;99.90;;;;;;10496950;28;20920;-78
2021/12/29 18:54:10;;;;;;;6.40;6.20;;;10.80;99.90;;;;;;10524331;28;20222;-79
2021/12/29 18:59:12;;;;;;;5.53;5.13;;;10.80;99.90;;;;;;10532495;28;20263;-81
2021/12/29 19:04:16;;;;;;;6.60;6.30;;;10.90;99.90;;;;;;10516296;28;20212;-80
2021/12/29 19:09:18;;;;;;;5.20;4.80;;;10.90;99.90;;;;;;10525850;28;20199;-82
2021/12/29 19:14:24;;;;;;;5.00;4.80;;;11.00;99.90;;;;;;10528563;28;20247;-81
2021/12/29 19:19:29;;;;;;;4.90;4.70;;;11.00;99.90;;;;;;10537518;28;20203;-82
2021/12/29 19:24:31;;;;;;;5.67;5.37;;;11.00;99.90;;;;;;10519447;28;20704;-82
2021/12/29 19:29:34;;;;;;;7.60;7.00;;;11.10;99.90;;;;;;10533608;28;20229;-80
2021/12/29 19:34:39;;;;;;;6.83;6.53;;;11.10;99.90;;;;;;10508120;28;20274;-80
2021/12/29 19:39:42;;;;;;;5.37;5.07;;;11.10;99.90;;;;;;10512917;28;20807;-78
2021/12/29 19:44:46;;;;;;;4.80;4.60;;;11.10;99.90;;;;;;10512303;28;20327;-78
2021/12/29 19:49:50;;;;;;;6.17;5.87;;;11.20;99.90;;;;;;10512123;28;20261;-80
2021/12/29 19:54:52;;;;;;;4.27;4.07;;;11.20;99.90;;;;;;10517521;28;20299;-80
2021/12/29 19:59:54;;;;;;;6.40;6.10;;;11.30;99.90;;;;;;10505619;28;20196;-78
2021/12/29 20:04:58;;;;;;;6.50;6.20;;;11.40;99.90;;;;;;10512844;28;20223;-78
2021/12/29 20:10:00;;;;;;;5.90;5.57;;;11.50;99.90;;;;;;10532456;28;20675;-79
2021/12/29 20:15:02;;;;;;;6.40;6.10;;;11.50;99.90;;;;;;10514653;28;20223;-80
2021/12/29 20:20:09;;;;;;;6.07;5.77;;;11.60;99.90;;;;;;10513031;28;20200;-79
2021/12/29 20:25:12;;;;;;;5.60;5.40;;;11.60;99.90;;;;;;10533030;28;20224;-79
2021/12/29 20:30:18;;;;;;;6.57;6.17;;;11.70;99.90;;;;;;10542293;28;20770;-78
2021/12/29 20:35:21;;;;;;;6.50;6.10;;;11.70;99.90;;;;;;10544798;28;20248;-81
2021/12/29 20:40:23;;;;;;;6.53;6.13;;;11.70;99.90;;;;;;10543820;28;20199;-82
2021/12/29 20:45:25;;;;;;;5.80;5.50;;;11.80;99.90;;;;;;10544538;28;20227;-81
2021/12/29 20:50:29;;;;;;;5.20;4.90;;;11.80;99.90;;;;;;10540399;28;20208;-83
2021/12/29 20:55:31;;;;;;;5.00;4.80;;;11.80;99.90;;;;;;10541003;28;20227;-81
2021/12/29 21:00:33;;;;;;;5.13;4.87;;;11.80;99.90;;;;;;10550209;28;20489;-79
2021/12/29 21:05:37;;;;;;;6.40;6.00;;;12.00;99.90;;;;;;10540964;28;20220;-79
2021/12/29 21:10:40;;;;;;;5.30;5.00;;;12.10;99.90;;;;;;10531799;28;20250;-79
2021/12/29 21:15:42;;;;;;;5.27;4.97;;;12.10;99.90;;;;;;10542920;28;20223;-78
2021/12/29 21:20:46;;;;;;;5.43;5.10;;;12.10;99.90;;;;;;10521665;28;20283;-80
2021/12/29 21:25:48;;;;;;;5.60;5.30;;;12.10;99.90;;;;;;10539992;28;20229;-79
2021/12/29 21:30:51;;;;;;;5.33;5.00;;;12.10;99.90;;;;;;10547060;28;20281;-79
2021/12/29 21:35:58;;;;;;;4.80;4.40;;;12.10;99.90;;;;;;10541693;28;20220;-79
2021/12/29 21:41:00;;;;;;;4.80;4.50;;;12.10;99.90;;;;;;10516090;28;20267;-82
2021/12/29 21:46:03;;;;;;;4.40;4.20;;;12.20;99.90;;;;;;10541254;28;20249;-82
2021/12/29 21:51:09;;;;;;;4.60;4.40;;;12.20;99.90;;;;;;10539634;28;20215;-81
2021/12/29 21:56:11;;;;;;;4.40;4.20;;;12.30;99.90;;;;;;10520528;28;20289;-79
2021/12/29 22:01:13;;;;;;;3.80;3.60;;;12.30;99.90;;;;;;10526450;28;20282;-79
2021/12/29 22:06:16;;;;;;;4.17;3.97;;;12.30;99.90;;;;;;10536831;28;20287;-78
2021/12/29 22:11:19;;;;;;;4.10;3.90;;;12.30;99.90;;;;;;10539268;28;20211;-81
2021/12/29 22:16:21;;;;;;;3.57;3.40;;;12.40;99.90;;;;;;10534249;28;20659;-82
2021/12/29 22:21:26;;;;;;;3.90;3.70;;;12.40;99.90;;;;;;10520672;28;20571;-81
2021/12/29 22:26:28;;;;;;;3.50;3.40;;;12.40;99.90;;;;;;10525054;28;20703;-79
2021/12/29 22:31:30;;;;;;;3.20;3.10;;;12.40;99.90;;;;;;10528675;28;20745;-80
2021/12/29 22:36:34;;;;;;;3.80;3.60;;;12.50;99.90;;;;;;10541156;28;20216;-81
2021/12/29 22:41:37;;;;;;;4.30;4.00;;;12.40;99.90;;;;;;10534953;28;20189;-80
2021/12/29 22:46:40;;;;;;;3.93;3.73;;;12.40;99.90;;;;;;10538675;28;20223;-82
2021/12/29 22:51:43;;;;;;;3.10;3.00;;;12.40;99.90;;;;;;10542385;28;20226;-81
2021/12/29 22:56:45;;;;;;;3.40;3.30;;;12.50;99.90;;;;;;10534173;28;20618;-81
2021/12/29 23:01:47;;;;;;;3.83;3.73;;;12.60;99.90;;;;;;10517608;28;20195;-83
2021/12/29 23:06:51;;;;;;;2.87;2.77;;;12.60;99.90;;;;;;10524438;28;20299;-83
2021/12/29 23:11:54;;;;;;;3.70;3.50;;;12.70;99.90;;;;;;10538754;28;20295;-82
2021/12/29 23:16:56;;;;;;;2.77;2.63;;;12.80;99.90;;;;;;10533010;28;20243;-83
2021/12/29 23:22:00;;;;;;;2.90;2.80;;;12.80;99.90;;;;;;10533619;28;20648;-81
2021/12/29 23:32:21;;;;;;;3.20;3.10;;;12.90;99.90;;;;;;10534971;28;20314;-80
2021/12/29 23:37:27;;;;;;;2.60;2.50;;;12.90;99.90;;;;;;10529908;28;20215;-78
2021/12/29 23:42:29;;;;;;;3.37;3.17;;;12.90;99.90;;;;;;10539932;28;20283;-83
2021/12/29 23:47:31;;;;;;;2.87;2.77;;;13.00;99.90;;;;;;10532148;28;20273;-81
2021/12/29 23:52:35;;;;;;;2.50;2.40;;;13.00;99.90;;;;;;10533747;28;20234;-82
2021/12/29 23:57:40;;;;;;;2.80;2.70;;;13.00;99.90;;;;;;10508417;28;20217;-83
